sensor_id;sensor_type;location;lat;lon;timestamp;temperature;humidity
17348;DHT22;8791;50.876;4.342;2023-03-01T00:00:39;2.00;99.90
17348;DHT22;8791;50.876;4.342;2023-03-01T00:03:08;2.10;99.90
17348;DHT22;8791;50.876;4.342;2023-03-01T00:05:35;2.10;99.90
17348;DHT22;8791;50.876;4.342;2023-03-01T00:08:01;2.00;99.90
17348;DHT22;8791;50.876;4.342;2023-03-01T00:10:28;2.20;99.90
17348;DHT22;8791;50.876;4.342;2023-03-01T00:12:55;2.20;99.90
17348;DHT22;8791;50.876;4.342;2023-03-01T00:15:22;2.30;99.90
17348;DHT22;8791;50.876;4.342;2023-03-01T00:17:49;2.10;99.90
17348;DHT22;8791;50.876;4.342;2023-03-01T00:20:17;2.10;99.90
17348;DHT22;8791;50.876;4.342;2023-03-01T00:22:44;2.10;99.90
17348;DHT22;8791;50.876;4.342;2023-03-01T00:25:11;2.20;99.90
17348;DHT22;8791;50.876;4.342;2023-03-01T00:27:38;2.20;99.90
17348;DHT22;8791;50.876;4.342;2023-03-01T00:30:05;2.00;99.90
17348;DHT22;8791;50.876;4.342;2023-03-01T00:32:32;2.00;99.90
17348;DHT22;8791;50.876;4.342;2023-03-01T00:34:59;2.00;99.90
17348;DHT22;8791;50.876;4.342;2023-03-01T00:37:27;1.90;99.90
17348;DHT22;8791;50.876;4.342;2023-03-01T00:39:54;1.80;99.90
17348;DHT22;8791;50.876;4.342;2023-03-01T00:42:21;2.00;99.90
17348;DHT22;8791;50.876;4.342;2023-03-01T00:44:48;2.00;99.90
17348;DHT22;8791;50.876;4.342;2023-03-01T00:47:15;2.00;99.90
17348;DHT22;8791;50.876;4.342;2023-03-01T00:49:42;2.00;99.90
17348;DHT22;8791;50.876;4.342;2023-03-01T00:52:09;2.10;99.90
17348;DHT22;8791;50.876;4.342;2023-03-01T00:54:37;2.10;99.90
17348;DHT22;8791;50.876;4.342;2023-03-01T00:57:04;2.10;99.90
17348;DHT22;8791;50.876;4.342;2023-03-01T00:59:31;2.00;99.90
17348;DHT22;8791;50.876;4.342;2023-03-01T01:01:57;2.00;99.90
17348;DHT22;8791;50.876;4.342;2023-03-01T01:04:25;1.90;99.90
17348;DHT22;8791;50.876;4.342;2023-03-01T01:06:51;1.90;99.90
17348;DHT22;8791;50.876;4.342;2023-03-01T01:09:18;1.80;99.90
17348;DHT22;8791;50.876;4.342;2023-03-01T01:11:48;1.90;99.90
17348;DHT22;8791;50.876;4.342;2023-03-01T01:14:15;1.90;99.90
17348;DHT22;8791;50.876;4.342;2023-03-01T01:16:42;1.80;99.90
17348;DHT22;8791;50.876;4.342;2023-03-01T01:19:10;1.90;99.90
17348;DHT22;8791;50.876;4.342;2023-03-01T01:21:37;1.90;99.90
17348;DHT22;8791;50.876;4.342;2023-03-01T01:24:04;1.90;99.90
17348;DHT22;8791;50.876;4.342;2023-03-01T01:26:33;1.90;99.90
17348;DHT22;8791;50.876;4.342;2023-03-01T01:29:03;1.90;99.90
17348;DHT22;8791;50.876;4.342;2023-03-01T01:31:31;1.80;99.90
17348;DHT22;8791;50.876;4.342;2023-03-01T01:33:59;1.80;99.90
17348;DHT22;8791;50.876;4.342;2023-03-01T01:36:26;1.80;99.90
17348;DHT22;8791;50.876;4.342;2023-03-01T01:38:53;1.80;99.90
17348;DHT22;8791;50.876;4.342;2023-03-01T01:41:20;1.90;99.90
17348;DHT22;8791;50.876;4.342;2023-03-01T01:43:50;2.00;99.90
17348;DHT22;8791;50.876;4.342;2023-03-01T01:46:39;1.90;99.90
17348;DHT22;8791;50.876;4.342;2023-03-01T01:49:16;1.80;99.90
17348;DHT22;8791;50.876;4.342;2023-03-01T01:51:45;1.70;99.90
17348;DHT22;8791;50.876;4.342;2023-03-01T01:54:18;1.60;99.90
17348;DHT22;8791;50.876;4.342;2023-03-01T01:56:48;1.60;99.90
17348;DHT22;8791;50.876;4.342;2023-03-01T01:59:18;1.50;99.90
17348;DHT22;8791;50.876;4.342;2023-03-01T02:01:46;1.70;99.90
17348;DHT22;8791;50.876;4.342;2023-03-01T02:04:13;1.60;99.90
17348;DHT22;8791;50.876;4.342;2023-03-01T02:06:45;1.60;99.90
17348;DHT22;8791;50.876;4.342;2023-03-01T02:09:14;1.50;99.90
17348;DHT22;8791;50.876;4.342;2023-03-01T02:11:43;1.40;99.90
17348;DHT22;8791;50.876;4.342;2023-03-01T02:14:11;1.30;99.90
17348;DHT22;8791;50.876;4.342;2023-03-01T02:16:38;1.10;99.90
17348;DHT22;8791;50.876;4.342;2023-03-01T02:19:06;1.20;99.90
17348;DHT22;8791;50.876;4.342;2023-03-01T02:21:41;1.20;99.90
17348;DHT22;8791;50.876;4.342;2023-03-01T02:24:17;1.30;99.90
17348;DHT22;8791;50.876;4.342;2023-03-01T02:26:51;1.20;99.90
17348;DHT22;8791;50.876;4.342;2023-03-01T02:29:20;1.30;99.90
17348;DHT22;8791;50.876;4.342;2023-03-01T02:31:48;1.20;99.90
17348;DHT22;8791;50.876;4.342;2023-03-01T02:34:18;1.20;99.90
17348;DHT22;8791;50.876;4.342;2023-03-01T02:36:48;1.20;99.90
17348;DHT22;8791;50.876;4.342;2023-03-01T02:39:19;1.10;99.90
17348;DHT22;8791;50.876;4.342;2023-03-01T02:41:51;1.00;99.90
17348;DHT22;8791;50.876;4.342;2023-03-01T02:44:20;1.10;99.90
17348;DHT22;8791;50.876;4.342;2023-03-01T02:46:49;1.20;99.90
17348;DHT22;8791;50.876;4.342;2023-03-01T02:49:22;1.10;99.90
17348;DHT22;8791;50.876;4.342;2023-03-01T02:52:16;1.40;99.90
17348;DHT22;8791;50.876;4.342;2023-03-01T02:54:48;1.40;99.90
17348;DHT22;8791;50.876;4.342;2023-03-01T02:57:17;1.30;99.90
17348;DHT22;8791;50.876;4.342;2023-03-01T02:59:45;1.30;99.90
17348;DHT22;8791;50.876;4.342;2023-03-01T03:02:20;1.20;99.90
17348;DHT22;8791;50.876;4.342;2023-03-01T03:05:02;1.00;99.90
17348;DHT22;8791;50.876;4.342;2023-03-01T03:07:32;1.00;99.90
17348;DHT22;8791;50.876;4.342;2023-03-01T03:09:58;1.10;99.90
17348;DHT22;8791;50.876;4.342;2023-03-01T03:12:25;1.10;99.90
17348;DHT22;8791;50.876;4.342;2023-03-01T03:14:53;1.10;99.90
17348;DHT22;8791;50.876;4.342;2023-03-01T03:17:20;1.10;99.90
17348;DHT22;8791;50.876;4.342;2023-03-01T03:19:47;0.90;99.90
17348;DHT22;8791;50.876;4.342;2023-03-01T03:22:14;0.90;99.90
17348;DHT22;8791;50.876;4.342;2023-03-01T03:24:41;0.80;99.90
17348;DHT22;8791;50.876;4.342;2023-03-01T03:27:08;0.90;99.90
17348;DHT22;8791;50.876;4.342;2023-03-01T03:29:34;1.00;99.90
17348;DHT22;8791;50.876;4.342;2023-03-01T03:32:03;0.90;99.90
17348;DHT22;8791;50.876;4.342;2023-03-01T03:34:30;0.90;99.90
17348;DHT22;8791;50.876;4.342;2023-03-01T03:36:57;0.80;99.90
17348;DHT22;8791;50.876;4.342;2023-03-01T03:39:25;0.80;99.90
17348;DHT22;8791;50.876;4.342;2023-03-01T03:41:52;0.80;99.90
17348;DHT22;8791;50.876;4.342;2023-03-01T03:44:20;0.80;99.90
17348;DHT22;8791;50.876;4.342;2023-03-01T03:46:47;0.80;99.90
17348;DHT22;8791;50.876;4.342;2023-03-01T03:49:15;0.60;99.90
17348;DHT22;8791;50.876;4.342;2023-03-01T03:51:42;0.60;99.90
17348;DHT22;8791;50.876;4.342;2023-03-01T03:54:11;0.60;99.90
17348;DHT22;8791;50.876;4.342;2023-03-01T03:56:38;0.50;99.90
17348;DHT22;8791;50.876;4.342;2023-03-01T03:59:05;0.60;99.90
17348;DHT22;8791;50.876;4.342;2023-03-01T04:01:31;0.70;99.90
17348;DHT22;8791;50.876;4.342;2023-03-01T04:03:58;0.50;99.90
17348;DHT22;8791;50.876;4.342;2023-03-01T04:06:30;0.40;99.90
17348;DHT22;8791;50.876;4.342;2023-03-01T04:08:57;0.40;99.90
17348;DHT22;8791;50.876;4.342;2023-03-01T04:11:26;0.40;99.90
17348;DHT22;8791;50.876;4.342;2023-03-01T04:13:55;0.30;99.90
17348;DHT22;8791;50.876;4.342;2023-03-01T04:16:22;0.40;99.90
17348;DHT22;8791;50.876;4.342;2023-03-01T04:18:50;0.40;99.90
17348;DHT22;8791;50.876;4.342;2023-03-01T04:21:17;0.40;99.90
17348;DHT22;8791;50.876;4.342;2023-03-01T04:23:47;0.40;99.90
17348;DHT22;8791;50.876;4.342;2023-03-01T04:26:18;0.30;99.90
17348;DHT22;8791;50.876;4.342;2023-03-01T04:28:45;0.30;99.90
17348;DHT22;8791;50.876;4.342;2023-03-01T04:31:15;0.30;99.90
17348;DHT22;8791;50.876;4.342;2023-03-01T04:33:45;0.20;99.90
17348;DHT22;8791;50.876;4.342;2023-03-01T04:36:13;0.40;99.90
17348;DHT22;8791;50.876;4.342;2023-03-01T04:38:41;0.30;99.90
17348;DHT22;8791;50.876;4.342;2023-03-01T04:41:10;0.30;99.90
17348;DHT22;8791;50.876;4.342;2023-03-01T04:43:37;0.40;99.90
17348;DHT22;8791;50.876;4.342;2023-03-01T04:46:06;0.40;99.90
17348;DHT22;8791;50.876;4.342;2023-03-01T04:48:34;0.30;99.90
17348;DHT22;8791;50.876;4.342;2023-03-01T04:51:03;0.20;99.90
17348;DHT22;8791;50.876;4.342;2023-03-01T04:53:30;0.10;99.90
17348;DHT22;8791;50.876;4.342;2023-03-01T04:55:58;0.20;99.90
17348;DHT22;8791;50.876;4.342;2023-03-01T04:58:27;0.10;99.90
17348;DHT22;8791;50.876;4.342;2023-03-01T05:00:54;0.10;99.90
17348;DHT22;8791;50.876;4.342;2023-03-01T05:03:21;-0.10;99.90
17348;DHT22;8791;50.876;4.342;2023-03-01T05:05:50;-0.10;99.90
17348;DHT22;8791;50.876;4.342;2023-03-01T05:08:18;-0.10;99.90
17348;DHT22;8791;50.876;4.342;2023-03-01T05:10:48;-0.10;99.90
17348;DHT22;8791;50.876;4.342;2023-03-01T05:13:15;0.10;99.90
17348;DHT22;8791;50.876;4.342;2023-03-01T05:15:49;0.20;99.90
17348;DHT22;8791;50.876;4.342;2023-03-01T05:20:49;0.10;99.90
17348;DHT22;8791;50.876;4.342;2023-03-01T05:23:15;0.00;99.90
17348;DHT22;8791;50.876;4.342;2023-03-01T05:25:42;0.00;99.90
17348;DHT22;8791;50.876;4.342;2023-03-01T05:28:11;-0.10;99.90
17348;DHT22;8791;50.876;4.342;2023-03-01T05:30:38;-0.10;99.90
17348;DHT22;8791;50.876;4.342;2023-03-01T05:33:07;-0.20;99.90
17348;DHT22;8791;50.876;4.342;2023-03-01T05:35:39;-0.10;99.90
17348;DHT22;8791;50.876;4.342;2023-03-01T05:38:06;-0.10;99.90
17348;DHT22;8791;50.876;4.342;2023-03-01T05:40:33;0.00;99.90
17348;DHT22;8791;50.876;4.342;2023-03-01T05:43:00;-0.10;99.90
17348;DHT22;8791;50.876;4.342;2023-03-01T05:45:31;-0.20;99.90
17348;DHT22;8791;50.876;4.342;2023-03-01T05:47:59;0.00;99.90
17348;DHT22;8791;50.876;4.342;2023-03-01T05:50:29;0.00;99.90
17348;DHT22;8791;50.876;4.342;2023-03-01T05:52:58;0.00;99.90
17348;DHT22;8791;50.876;4.342;2023-03-01T05:55:26;0.00;99.90
17348;DHT22;8791;50.876;4.342;2023-03-01T05:57:53;0.10;99.90
17348;DHT22;8791;50.876;4.342;2023-03-01T06:00:21;0.00;99.90
17348;DHT22;8791;50.876;4.342;2023-03-01T06:02:48;0.10;99.90
17348;DHT22;8791;50.876;4.342;2023-03-01T06:05:15;0.20;99.90
17348;DHT22;8791;50.876;4.342;2023-03-01T06:07:43;0.20;99.90
17348;DHT22;8791;50.876;4.342;2023-03-01T06:10:12;0.10;99.90
17348;DHT22;8791;50.876;4.342;2023-03-01T06:12:40;-0.10;99.90
17348;DHT22;8791;50.876;4.342;2023-03-01T06:15:09;-0.10;99.90
17348;DHT22;8791;50.876;4.342;2023-03-01T06:17:37;-0.10;99.90
17348;DHT22;8791;50.876;4.342;2023-03-01T06:20:06;-0.10;99.90
17348;DHT22;8791;50.876;4.342;2023-03-01T06:22:33;-0.10;99.90
17348;DHT22;8791;50.876;4.342;2023-03-01T06:25:01;-0.10;99.90
17348;DHT22;8791;50.876;4.342;2023-03-01T06:27:28;0.10;99.90
17348;DHT22;8791;50.876;4.342;2023-03-01T06:29:55;0.10;99.90
17348;DHT22;8791;50.876;4.342;2023-03-01T06:32:22;0.00;99.90
17348;DHT22;8791;50.876;4.342;2023-03-01T06:34:49;0.00;99.90
17348;DHT22;8791;50.876;4.342;2023-03-01T06:37:16;0.10;99.90
17348;DHT22;8791;50.876;4.342;2023-03-01T06:39:43;0.00;99.90
17348;DHT22;8791;50.876;4.342;2023-03-01T06:42:11;0.00;99.90
17348;DHT22;8791;50.876;4.342;2023-03-01T06:44:38;0.10;99.90
17348;DHT22;8791;50.876;4.342;2023-03-01T06:47:05;0.00;99.90
17348;DHT22;8791;50.876;4.342;2023-03-01T06:49:32;-0.10;99.90
17348;DHT22;8791;50.876;4.342;2023-03-01T06:51:58;0.00;99.90
17348;DHT22;8791;50.876;4.342;2023-03-01T06:54:25;0.10;99.90
17348;DHT22;8791;50.876;4.342;2023-03-01T06:56:52;0.20;99.90
17348;DHT22;8791;50.876;4.342;2023-03-01T06:59:20;0.20;99.90
17348;DHT22;8791;50.876;4.342;2023-03-01T07:01:47;0.20;99.90
17348;DHT22;8791;50.876;4.342;2023-03-01T07:04:14;0.30;99.90
17348;DHT22;8791;50.876;4.342;2023-03-01T07:06:41;0.20;99.90
17348;DHT22;8791;50.876;4.342;2023-03-01T07:09:07;0.20;99.90
17348;DHT22;8791;50.876;4.342;2023-03-01T07:11:34;0.20;99.90
17348;DHT22;8791;50.876;4.342;2023-03-01T07:14:01;0.30;99.90
17348;DHT22;8791;50.876;4.342;2023-03-01T07:16:30;0.00;99.90
17348;DHT22;8791;50.876;4.342;2023-03-01T07:18:56;0.10;99.90
17348;DHT22;8791;50.876;4.342;2023-03-01T07:21:23;0.00;99.90
17348;DHT22;8791;50.876;4.342;2023-03-01T07:23:50;0.10;99.90
17348;DHT22;8791;50.876;4.342;2023-03-01T07:26:17;0.20;99.90
17348;DHT22;8791;50.876;4.342;2023-03-01T07:28:43;0.00;99.90
17348;DHT22;8791;50.876;4.342;2023-03-01T07:31:10;0.10;99.90
17348;DHT22;8791;50.876;4.342;2023-03-01T07:33:38;0.20;99.90
17348;DHT22;8791;50.876;4.342;2023-03-01T07:36:06;0.30;99.90
17348;DHT22;8791;50.876;4.342;2023-03-01T07:38:33;0.40;99.90
17348;DHT22;8791;50.876;4.342;2023-03-01T07:41:02;0.50;99.90
17348;DHT22;8791;50.876;4.342;2023-03-01T07:43:29;0.50;99.90
17348;DHT22;8791;50.876;4.342;2023-03-01T07:45:58;0.60;99.90
17348;DHT22;8791;50.876;4.342;2023-03-01T07:48:25;0.60;99.90
17348;DHT22;8791;50.876;4.342;2023-03-01T07:50:53;0.70;99.90
17348;DHT22;8791;50.876;4.342;2023-03-01T07:53:20;0.80;99.90
17348;DHT22;8791;50.876;4.342;2023-03-01T07:55:47;0.60;99.90
17348;DHT22;8791;50.876;4.342;2023-03-01T07:58:14;0.80;99.90
17348;DHT22;8791;50.876;4.342;2023-03-01T08:00:40;0.80;99.90
17348;DHT22;8791;50.876;4.342;2023-03-01T08:03:07;1.00;99.90
17348;DHT22;8791;50.876;4.342;2023-03-01T08:05:34;1.10;99.90
17348;DHT22;8791;50.876;4.342;2023-03-01T08:08:02;1.30;99.90
17348;DHT22;8791;50.876;4.342;2023-03-01T08:10:30;1.20;99.90
17348;DHT22;8791;50.876;4.342;2023-03-01T08:12:57;1.20;99.90
17348;DHT22;8791;50.876;4.342;2023-03-01T08:15:24;1.10;99.90
17348;DHT22;8791;50.876;4.342;2023-03-01T08:17:50;1.10;99.90
17348;DHT22;8791;50.876;4.342;2023-03-01T08:20:17;1.20;99.90
17348;DHT22;8791;50.876;4.342;2023-03-01T08:22:44;1.20;99.90
17348;DHT22;8791;50.876;4.342;2023-03-01T08:25:12;1.20;99.90
17348;DHT22;8791;50.876;4.342;2023-03-01T08:27:39;1.20;99.90
17348;DHT22;8791;50.876;4.342;2023-03-01T08:30:07;1.30;99.90
17348;DHT22;8791;50.876;4.342;2023-03-01T08:32:38;1.60;99.90
17348;DHT22;8791;50.876;4.342;2023-03-01T08:35:05;1.70;99.90
17348;DHT22;8791;50.876;4.342;2023-03-01T08:37:32;1.70;99.90
17348;DHT22;8791;50.876;4.342;2023-03-01T08:39:59;1.70;99.90
17348;DHT22;8791;50.876;4.342;2023-03-01T08:42:27;1.80;99.90
17348;DHT22;8791;50.876;4.342;2023-03-01T08:44:54;1.70;99.90
17348;DHT22;8791;50.876;4.342;2023-03-01T08:47:22;1.60;99.90
17348;DHT22;8791;50.876;4.342;2023-03-01T08:49:49;1.60;99.90
17348;DHT22;8791;50.876;4.342;2023-03-01T08:52:16;1.70;99.90
17348;DHT22;8791;50.876;4.342;2023-03-01T08:54:43;1.80;99.90
17348;DHT22;8791;50.876;4.342;2023-03-01T08:57:09;1.90;99.90
17348;DHT22;8791;50.876;4.342;2023-03-01T08:59:39;1.90;99.90
17348;DHT22;8791;50.876;4.342;2023-03-01T09:02:11;2.00;99.90
17348;DHT22;8791;50.876;4.342;2023-03-01T09:04:38;2.00;99.90
17348;DHT22;8791;50.876;4.342;2023-03-01T09:07:05;2.00;99.90
17348;DHT22;8791;50.876;4.342;2023-03-01T09:09:31;2.10;99.90
17348;DHT22;8791;50.876;4.342;2023-03-01T09:11:58;2.10;99.90
17348;DHT22;8791;50.876;4.342;2023-03-01T09:14:25;2.20;99.90
17348;DHT22;8791;50.876;4.342;2023-03-01T09:16:54;2.20;99.90
17348;DHT22;8791;50.876;4.342;2023-03-01T09:19:20;2.30;99.90
17348;DHT22;8791;50.876;4.342;2023-03-01T09:21:47;2.40;99.90
17348;DHT22;8791;50.876;4.342;2023-03-01T09:24:19;2.30;99.90
17348;DHT22;8791;50.876;4.342;2023-03-01T09:26:47;2.40;99.90
17348;DHT22;8791;50.876;4.342;2023-03-01T09:29:14;2.40;99.90
17348;DHT22;8791;50.876;4.342;2023-03-01T09:31:42;2.50;99.90
17348;DHT22;8791;50.876;4.342;2023-03-01T09:34:10;2.60;99.90
17348;DHT22;8791;50.876;4.342;2023-03-01T09:36:37;2.60;99.90
17348;DHT22;8791;50.876;4.342;2023-03-01T09:39:04;2.80;99.90
17348;DHT22;8791;50.876;4.342;2023-03-01T09:41:42;2.90;99.90
17348;DHT22;8791;50.876;4.342;2023-03-01T09:44:21;2.90;99.90
17348;DHT22;8791;50.876;4.342;2023-03-01T09:46:49;2.80;99.90
17348;DHT22;8791;50.876;4.342;2023-03-01T09:49:21;2.80;99.90
17348;DHT22;8791;50.876;4.342;2023-03-01T09:51:56;3.00;99.90
17348;DHT22;8791;50.876;4.342;2023-03-01T09:54:23;2.90;99.90
17348;DHT22;8791;50.876;4.342;2023-03-01T09:57:03;2.90;99.90
17348;DHT22;8791;50.876;4.342;2023-03-01T09:59:37;3.00;99.90
17348;DHT22;8791;50.876;4.342;2023-03-01T10:02:24;3.10;99.90
17348;DHT22;8791;50.876;4.342;2023-03-01T10:04:57;3.30;99.90
17348;DHT22;8791;50.876;4.342;2023-03-01T10:07:32;3.30;99.90
17348;DHT22;8791;50.876;4.342;2023-03-01T10:10:05;3.40;99.90
17348;DHT22;8791;50.876;4.342;2023-03-01T10:12:35;3.60;99.90
17348;DHT22;8791;50.876;4.342;2023-03-01T10:15:06;3.60;99.90
17348;DHT22;8791;50.876;4.342;2023-03-01T10:17:37;3.70;99.90
17348;DHT22;8791;50.876;4.342;2023-03-01T10:20:19;3.70;99.90
17348;DHT22;8791;50.876;4.342;2023-03-01T10:22:47;3.50;99.90
17348;DHT22;8791;50.876;4.342;2023-03-01T10:25:23;3.50;99.90
17348;DHT22;8791;50.876;4.342;2023-03-01T10:27:53;3.60;99.90
17348;DHT22;8791;50.876;4.342;2023-03-01T10:30:22;3.60;99.90
17348;DHT22;8791;50.876;4.342;2023-03-01T10:32:53;3.70;99.90
17348;DHT22;8791;50.876;4.342;2023-03-01T10:35:23;3.80;99.90
17348;DHT22;8791;50.876;4.342;2023-03-01T10:37:58;3.90;99.90
17348;DHT22;8791;50.876;4.342;2023-03-01T10:40:25;4.00;99.90
17348;DHT22;8791;50.876;4.342;2023-03-01T10:42:52;4.00;99.90
17348;DHT22;8791;50.876;4.342;2023-03-01T10:45:31;3.90;99.90
17348;DHT22;8791;50.876;4.342;2023-03-01T10:48:09;4.00;99.90
17348;DHT22;8791;50.876;4.342;2023-03-01T10:50:38;4.30;99.90
17348;DHT22;8791;50.876;4.342;2023-03-01T10:53:21;4.30;99.90
17348;DHT22;8791;50.876;4.342;2023-03-01T10:55:57;4.20;99.90
17348;DHT22;8791;50.876;4.342;2023-03-01T10:58:24;4.10;99.90
17348;DHT22;8791;50.876;4.342;2023-03-01T11:00:53;4.00;99.90
17348;DHT22;8791;50.876;4.342;2023-03-01T11:03:23;4.00;99.90
17348;DHT22;8791;50.876;4.342;2023-03-01T11:05:58;4.20;99.90
17348;DHT22;8791;50.876;4.342;2023-03-01T11:08:36;4.30;99.90
17348;DHT22;8791;50.876;4.342;2023-03-01T11:11:06;4.40;99.90
17348;DHT22;8791;50.876;4.342;2023-03-01T11:13:49;4.40;99.90
17348;DHT22;8791;50.876;4.342;2023-03-01T11:16:27;4.60;99.90
17348;DHT22;8791;50.876;4.342;2023-03-01T11:19:18;4.70;99.90
17348;DHT22;8791;50.876;4.342;2023-03-01T11:21:54;4.60;99.90
17348;DHT22;8791;50.876;4.342;2023-03-01T11:24:26;4.80;99.90
17348;DHT22;8791;50.876;4.342;2023-03-01T11:26:54;4.70;99.90
17348;DHT22;8791;50.876;4.342;2023-03-01T11:29:36;4.70;99.90
17348;DHT22;8791;50.876;4.342;2023-03-01T11:32:08;5.00;99.90
17348;DHT22;8791;50.876;4.342;2023-03-01T11:34:42;5.10;99.90
17348;DHT22;8791;50.876;4.342;2023-03-01T11:37:19;5.20;99.90
17348;DHT22;8791;50.876;4.342;2023-03-01T11:39:55;5.30;99.90
17348;DHT22;8791;50.876;4.342;2023-03-01T11:42:30;5.30;99.90
17348;DHT22;8791;50.876;4.342;2023-03-01T11:45:07;5.40;99.90
17348;DHT22;8791;50.876;4.342;2023-03-01T11:47:48;5.20;99.90
17348;DHT22;8791;50.876;4.342;2023-03-01T11:50:26;5.10;99.90
17348;DHT22;8791;50.876;4.342;2023-03-01T11:53:09;5.10;99.90
17348;DHT22;8791;50.876;4.342;2023-03-01T11:55:53;5.30;99.90
17348;DHT22;8791;50.876;4.342;2023-03-01T11:58:39;5.30;99.90
17348;DHT22;8791;50.876;4.342;2023-03-01T12:01:24;5.40;99.90
17348;DHT22;8791;50.876;4.342;2023-03-01T12:04:10;5.40;99.90
17348;DHT22;8791;50.876;4.342;2023-03-01T12:06:59;5.50;99.90
17348;DHT22;8791;50.876;4.342;2023-03-01T12:09:42;5.60;99.90
17348;DHT22;8791;50.876;4.342;2023-03-01T12:12:27;5.50;99.90
17348;DHT22;8791;50.876;4.342;2023-03-01T12:15:05;5.40;99.90
17348;DHT22;8791;50.876;4.342;2023-03-01T12:17:48;5.50;99.90
17348;DHT22;8791;50.876;4.342;2023-03-01T12:20:26;5.50;99.90
17348;DHT22;8791;50.876;4.342;2023-03-01T12:23:20;5.50;99.90
17348;DHT22;8791;50.876;4.342;2023-03-01T12:25:53;5.70;99.90
17348;DHT22;8791;50.876;4.342;2023-03-01T12:28:39;5.60;99.90
17348;DHT22;8791;50.876;4.342;2023-03-01T12:31:24;5.50;99.90
17348;DHT22;8791;50.876;4.342;2023-03-01T12:33:58;5.60;99.90
17348;DHT22;8791;50.876;4.342;2023-03-01T12:36:39;5.90;99.90
17348;DHT22;8791;50.876;4.342;2023-03-01T12:39:21;6.10;99.90
17348;DHT22;8791;50.876;4.342;2023-03-01T12:41:59;6.30;99.90
17348;DHT22;8791;50.876;4.342;2023-03-01T12:44:45;6.10;99.90
17348;DHT22;8791;50.876;4.342;2023-03-01T12:47:22;6.10;99.90
17348;DHT22;8791;50.876;4.342;2023-03-01T12:49:54;6.00;99.90
17348;DHT22;8791;50.876;4.342;2023-03-01T12:52:27;6.00;99.90
17348;DHT22;8791;50.876;4.342;2023-03-01T12:54:56;6.10;99.90
17348;DHT22;8791;50.876;4.342;2023-03-01T12:57:28;6.20;99.90
17348;DHT22;8791;50.876;4.342;2023-03-01T13:00:17;6.20;99.90
17348;DHT22;8791;50.876;4.342;2023-03-01T13:02:49;6.10;99.90
17348;DHT22;8791;50.876;4.342;2023-03-01T13:05:26;6.00;99.90
17348;DHT22;8791;50.876;4.342;2023-03-01T13:07:59;6.10;99.90
17348;DHT22;8791;50.876;4.342;2023-03-01T13:10:31;6.20;99.90
17348;DHT22;8791;50.876;4.342;2023-03-01T13:13:12;6.30;99.90
17348;DHT22;8791;50.876;4.342;2023-03-01T13:15:40;6.40;99.90
17348;DHT22;8791;50.876;4.342;2023-03-01T13:18:32;6.40;99.90
17348;DHT22;8791;50.876;4.342;2023-03-01T13:21:04;6.50;99.90
17348;DHT22;8791;50.876;4.342;2023-03-01T13:23:38;6.40;99.90
17348;DHT22;8791;50.876;4.342;2023-03-01T13:26:12;6.30;99.90
17348;DHT22;8791;50.876;4.342;2023-03-01T13:29:01;6.40;99.90
17348;DHT22;8791;50.876;4.342;2023-03-01T13:31:59;6.40;99.90
17348;DHT22;8791;50.876;4.342;2023-03-01T13:34:47;6.30;99.90
17348;DHT22;8791;50.876;4.342;2023-03-01T13:37:30;6.40;99.90
17348;DHT22;8791;50.876;4.342;2023-03-01T13:39:58;6.60;99.90
17348;DHT22;8791;50.876;4.342;2023-03-01T13:42:37;6.60;99.90
17348;DHT22;8791;50.876;4.342;2023-03-01T13:45:19;6.70;99.90
17348;DHT22;8791;50.876;4.342;2023-03-01T13:47:50;6.80;99.90
17348;DHT22;8791;50.876;4.342;2023-03-01T13:50:21;6.70;99.90
17348;DHT22;8791;50.876;4.342;2023-03-01T13:52:53;6.50;99.90
17348;DHT22;8791;50.876;4.342;2023-03-01T13:55:25;6.50;99.90
17348;DHT22;8791;50.876;4.342;2023-03-01T13:57:56;6.50;99.90
17348;DHT22;8791;50.876;4.342;2023-03-01T14:00:35;6.60;99.90
17348;DHT22;8791;50.876;4.342;2023-03-01T14:03:05;6.80;99.90
17348;DHT22;8791;50.876;4.342;2023-03-01T14:05:35;6.90;99.90
17348;DHT22;8791;50.876;4.342;2023-03-01T14:08:02;6.80;99.90
17348;DHT22;8791;50.876;4.342;2023-03-01T14:10:35;6.70;99.90
17348;DHT22;8791;50.876;4.342;2023-03-01T14:13:12;6.50;99.90
17348;DHT22;8791;50.876;4.342;2023-03-01T14:15:58;6.60;99.90
17348;DHT22;8791;50.876;4.342;2023-03-01T14:18:33;6.70;99.90
17348;DHT22;8791;50.876;4.342;2023-03-01T14:21:08;6.80;99.90
17348;DHT22;8791;50.876;4.342;2023-03-01T14:23:38;7.00;99.90
17348;DHT22;8791;50.876;4.342;2023-03-01T14:26:08;6.90;99.90
17348;DHT22;8791;50.876;4.342;2023-03-01T14:28:38;6.90;99.90
17348;DHT22;8791;50.876;4.342;2023-03-01T14:31:32;6.90;99.90
17348;DHT22;8791;50.876;4.342;2023-03-01T14:34:00;6.90;99.90
17348;DHT22;8791;50.876;4.342;2023-03-01T14:36:29;7.10;99.90
17348;DHT22;8791;50.876;4.342;2023-03-01T14:38:58;7.00;99.90
17348;DHT22;8791;50.876;4.342;2023-03-01T14:41:33;7.00;99.90
17348;DHT22;8791;50.876;4.342;2023-03-01T14:44:06;6.90;99.90
17348;DHT22;8791;50.876;4.342;2023-03-01T14:46:37;6.70;99.90
17348;DHT22;8791;50.876;4.342;2023-03-01T14:49:07;6.60;99.90
17348;DHT22;8791;50.876;4.342;2023-03-01T14:51:37;6.80;99.90
17348;DHT22;8791;50.876;4.342;2023-03-01T14:54:20;6.80;99.90
17348;DHT22;8791;50.876;4.342;2023-03-01T14:56:47;6.90;99.90
17348;DHT22;8791;50.876;4.342;2023-03-01T14:59:14;7.00;99.90
17348;DHT22;8791;50.876;4.342;2023-03-01T15:01:43;7.00;99.90
17348;DHT22;8791;50.876;4.342;2023-03-01T15:04:12;7.10;99.90
17348;DHT22;8791;50.876;4.342;2023-03-01T15:06:40;7.20;99.90
17348;DHT22;8791;50.876;4.342;2023-03-01T15:09:13;6.90;99.90
17348;DHT22;8791;50.876;4.342;2023-03-01T15:11:41;6.70;99.90
17348;DHT22;8791;50.876;4.342;2023-03-01T15:14:38;6.70;99.90
17348;DHT22;8791;50.876;4.342;2023-03-01T15:17:21;6.70;99.90
17348;DHT22;8791;50.876;4.342;2023-03-01T15:19:52;6.70;99.90
17348;DHT22;8791;50.876;4.342;2023-03-01T15:22:21;6.70;99.90
17348;DHT22;8791;50.876;4.342;2023-03-01T15:24:49;6.80;99.90
17348;DHT22;8791;50.876;4.342;2023-03-01T15:27:17;6.70;99.90
17348;DHT22;8791;50.876;4.342;2023-03-01T15:29:50;6.90;99.90
17348;DHT22;8791;50.876;4.342;2023-03-01T15:32:28;6.90;99.90
17348;DHT22;8791;50.876;4.342;2023-03-01T15:34:56;6.90;99.90
17348;DHT22;8791;50.876;4.342;2023-03-01T15:37:39;6.80;99.90
17348;DHT22;8791;50.876;4.342;2023-03-01T15:40:21;6.80;99.90
17348;DHT22;8791;50.876;4.342;2023-03-01T15:42:56;7.00;99.90
17348;DHT22;8791;50.876;4.342;2023-03-01T15:45:25;6.90;99.90
17348;DHT22;8791;50.876;4.342;2023-03-01T15:47:56;6.80;99.90
17348;DHT22;8791;50.876;4.342;2023-03-01T15:50:29;6.70;99.90
17348;DHT22;8791;50.876;4.342;2023-03-01T15:52:59;6.80;99.90
17348;DHT22;8791;50.876;4.342;2023-03-01T15:55:28;6.90;99.90
17348;DHT22;8791;50.876;4.342;2023-03-01T15:58:00;7.00;99.90
17348;DHT22;8791;50.876;4.342;2023-03-01T16:00:30;7.00;99.90
17348;DHT22;8791;50.876;4.342;2023-03-01T16:02:59;7.00;99.90
17348;DHT22;8791;50.876;4.342;2023-03-01T16:05:28;7.00;99.90
17348;DHT22;8791;50.876;4.342;2023-03-01T16:08:02;6.90;99.90
17348;DHT22;8791;50.876;4.342;2023-03-01T16:10:34;6.90;99.90
17348;DHT22;8791;50.876;4.342;2023-03-01T16:13:02;6.90;99.90
17348;DHT22;8791;50.876;4.342;2023-03-01T16:15:31;6.90;99.90
17348;DHT22;8791;50.876;4.342;2023-03-01T16:18:05;6.80;99.90
17348;DHT22;8791;50.876;4.342;2023-03-01T16:20:36;6.70;99.90
17348;DHT22;8791;50.876;4.342;2023-03-01T16:23:04;6.60;99.90
17348;DHT22;8791;50.876;4.342;2023-03-01T16:25:33;6.60;99.90
17348;DHT22;8791;50.876;4.342;2023-03-01T16:27:59;6.70;99.90